LPFL/FLW METAR and TAF weather

Enter ICAO airport designator
Station Type Date Time Source
LPFL METAR 2020/08/05 16:00 UTC NOAA

LPFL 051600Z 09005KT 040V140 9999 SCT030 23/16 Q1014


Station Type Date Time Source
LPFL Decoded METAR 2020/08/05 16:00 UTC NOAA

Flores Acores , Portugal (LPFL) 39-27N 031-08W 29M
Aug 05, 2020 - 12:00 PM EDT / 2020.08.05 1600 UTC
Wind: from the E (090 degrees) at 6 MPH (5 KT) (direction variable):0
Visibility: greater than 7 mile(s):0
Sky conditions: partly cloudy
Temperature: 73 F (23 C)
Dew Point: 60 F (16 C)
Relative Humidity: 64%
Pressure (altimeter): 29.94 in. Hg (1014 hPa)
ob: LPFL 051600Z 09005KT 040V140 9999 SCT030 23/16 Q1014
cycle: 16

Station Type Date Time Source
LPFL TAF UTC NOAA

Error!

Example: see airport list